sensor_id;sensor_type;location;lat;lon;timestamp;temperature;humidity
39017;DHT22;24784;45.582;5.276;2022-11-20T06:36:12;6.40;99.90
39017;DHT22;24784;45.582;5.276;2022-11-20T06:38:44;6.30;99.90
39017;DHT22;24784;45.582;5.276;2022-11-20T06:43:54;6.40;99.90
39017;DHT22;24784;45.582;5.276;2022-11-20T06:46:26;6.40;99.90
39017;DHT22;24784;45.582;5.276;2022-11-20T06:49:12;6.40;99.90
39017;DHT22;24784;45.582;5.276;2022-11-20T06:51:38;6.40;99.90
39017;DHT22;24784;45.582;5.276;2022-11-20T06:54:10;6.40;99.90
39017;DHT22;24784;45.582;5.276;2022-11-20T06:56:48;6.40;99.90
39017;DHT22;24784;45.582;5.276;2022-11-20T06:59:19;6.40;99.90
39017;DHT22;24784;45.582;5.276;2022-11-20T07:04:23;6.40;99.90
39017;DHT22;24784;45.582;5.276;2022-11-20T07:07:01;6.30;99.90
39017;DHT22;24784;45.582;5.276;2022-11-20T07:09:33;6.40;99.90
39017;DHT22;24784;45.582;5.276;2022-11-20T07:12:05;6.40;99.90
39017;DHT22;24784;45.582;5.276;2022-11-20T07:14:39;6.40;99.90
39017;DHT22;24784;45.582;5.276;2022-11-20T07:17:17;6.40;99.90
39017;DHT22;24784;45.582;5.276;2022-11-20T07:19:46;6.40;99.90
39017;DHT22;24784;45.582;5.276;2022-11-20T07:22:11;6.40;99.90
39017;DHT22;24784;45.582;5.276;2022-11-20T07:24:47;6.40;99.90
39017;DHT22;24784;45.582;5.276;2022-11-20T07:27:30;6.30;99.90
39017;DHT22;24784;45.582;5.276;2022-11-20T07:30:02;6.20;99.90
39017;DHT22;24784;45.582;5.276;2022-11-20T07:32:37;6.30;99.90
39017;DHT22;24784;45.582;5.276;2022-11-20T07:35:06;6.20;99.90
39017;DHT22;24784;45.582;5.276;2022-11-20T07:37:37;6.20;99.90
39017;DHT22;24784;45.582;5.276;2022-11-20T07:40:03;6.00;99.90
39017;DHT22;24784;45.582;5.276;2022-11-20T07:42:53;5.90;99.90
39017;DHT22;24784;45.582;5.276;2022-11-20T07:48:01;5.90;99.90
39017;DHT22;24784;45.582;5.276;2022-11-20T07:50:32;5.90;99.90
39017;DHT22;24784;45.582;5.276;2022-11-20T07:53:07;5.90;99.90
39017;DHT22;24784;45.582;5.276;2022-11-20T07:55:36;5.90;99.90
39017;DHT22;24784;45.582;5.276;2022-11-20T07:58:08;5.90;99.90
39017;DHT22;24784;45.582;5.276;2022-11-20T08:00:37;5.70;99.90
39017;DHT22;24784;45.582;5.276;2022-11-20T08:03:08;5.60;99.90
39017;DHT22;24784;45.582;5.276;2022-11-20T08:05:34;5.60;99.90
39017;DHT22;24784;45.582;5.276;2022-11-20T08:08:06;5.60;99.90
39017;DHT22;24784;45.582;5.276;2022-11-20T08:10:36;5.70;99.90
39017;DHT22;24784;45.582;5.276;2022-11-20T08:20:44;5.80;99.90
39017;DHT22;24784;45.582;5.276;2022-11-20T08:23:16;5.90;99.90
39017;DHT22;24784;45.582;5.276;2022-11-20T08:25:50;6.10;99.90
39017;DHT22;24784;45.582;5.276;2022-11-20T09:03:28;6.50;99.90
39017;DHT22;24784;45.582;5.276;2022-11-20T09:06:02;6.60;99.90
39017;DHT22;24784;45.582;5.276;2022-11-20T09:08:31;6.60;99.90
39017;DHT22;24784;45.582;5.276;2022-11-20T09:10:58;6.70;99.90
39017;DHT22;24784;45.582;5.276;2022-11-20T09:13:32;6.80;99.90
39017;DHT22;24784;45.582;5.276;2022-11-20T09:16:07;6.80;99.90
39017;DHT22;24784;45.582;5.276;2022-11-20T09:18:34;6.90;99.90
39017;DHT22;24784;45.582;5.276;2022-11-20T09:21:04;7.00;99.90
39017;DHT22;24784;45.582;5.276;2022-11-20T09:23:35;7.20;99.90
39017;DHT22;24784;45.582;5.276;2022-11-20T09:26:09;7.40;99.90
39017;DHT22;24784;45.582;5.276;2022-11-20T09:28:35;7.30;99.90
39017;DHT22;24784;45.582;5.276;2022-11-20T09:31:08;7.40;99.90
39017;DHT22;24784;45.582;5.276;2022-11-20T09:33:35;7.40;99.90
39017;DHT22;24784;45.582;5.276;2022-11-20T09:36:01;7.50;99.90
39017;DHT22;24784;45.582;5.276;2022-11-20T09:38:27;7.50;99.90
39017;DHT22;24784;45.582;5.276;2022-11-20T09:46:13;7.60;99.90
39017;DHT22;24784;45.582;5.276;2022-11-20T09:48:51;7.70;99.90
39017;DHT22;24784;45.582;5.276;2022-11-20T09:54:13;7.80;99.90
39017;DHT22;24784;45.582;5.276;2022-11-20T09:56:44;7.80;99.90
39017;DHT22;24784;45.582;5.276;2022-11-20T09:59:38;7.90;99.90
39017;DHT22;24784;45.582;5.276;2022-11-20T10:03:14;8.10;99.90
39017;DHT22;24784;45.582;5.276;2022-11-20T10:05:22;8.30;99.90
39017;DHT22;24784;45.582;5.276;2022-11-20T10:10:54;8.30;99.90
39017;DHT22;24784;45.582;5.276;2022-11-20T10:13:55;8.30;99.90
39017;DHT22;24784;45.582;5.276;2022-11-20T10:25:13;8.60;99.90
39017;DHT22;24784;45.582;5.276;2022-11-20T10:27:54;8.60;99.90
39017;DHT22;24784;45.582;5.276;2022-11-20T10:30:24;8.70;99.90
39017;DHT22;24784;45.582;5.276;2022-11-20T10:33:17;8.70;99.90
39017;DHT22;24784;45.582;5.276;2022-11-20T10:35:55;8.70;99.90
39017;DHT22;24784;45.582;5.276;2022-11-20T10:38:29;8.80;99.90
39017;DHT22;24784;45.582;5.276;2022-11-20T10:41:01;8.70;99.90
39017;DHT22;24784;45.582;5.276;2022-11-20T10:43:54;8.70;99.90
39017;DHT22;24784;45.582;5.276;2022-11-20T10:46:25;8.70;99.90
39017;DHT22;24784;45.582;5.276;2022-11-20T10:48:55;8.60;99.90
39017;DHT22;24784;45.582;5.276;2022-11-20T10:51:42;8.70;99.90
39017;DHT22;24784;45.582;5.276;2022-11-20T10:56:47;8.80;99.90
39017;DHT22;24784;45.582;5.276;2022-11-20T11:01:57;9.00;99.90
39017;DHT22;24784;45.582;5.276;2022-11-20T11:04:44;8.80;99.90
39017;DHT22;24784;45.582;5.276;2022-11-20T11:07:20;8.80;99.90
39017;DHT22;24784;45.582;5.276;2022-11-20T11:09:49;8.70;99.90
39017;DHT22;24784;45.582;5.276;2022-11-20T11:12:15;8.60;99.90
39017;DHT22;24784;45.582;5.276;2022-11-20T11:14:47;8.50;99.90
39017;DHT22;24784;45.582;5.276;2022-11-20T11:17:33;8.50;99.90
39017;DHT22;24784;45.582;5.276;2022-11-20T11:27:52;8.50;99.90
39017;DHT22;24784;45.582;5.276;2022-11-20T11:30:29;8.60;99.90
39017;DHT22;24784;45.582;5.276;2022-11-20T11:33:08;8.70;99.90
39017;DHT22;24784;45.582;5.276;2022-11-20T11:35:43;8.80;99.90
39017;DHT22;24784;45.582;5.276;2022-11-20T11:38:40;8.90;99.90
39017;DHT22;24784;45.582;5.276;2022-11-20T11:41:33;9.00;99.90
39017;DHT22;24784;45.582;5.276;2022-11-20T11:44:29;9.10;99.90
39017;DHT22;24784;45.582;5.276;2022-11-20T11:47:32;9.10;99.90
39017;DHT22;24784;45.582;5.276;2022-11-20T11:50:15;9.20;99.90
39017;DHT22;24784;45.582;5.276;2022-11-20T11:58:53;9.10;99.90
39017;DHT22;24784;45.582;5.276;2022-11-20T12:04:45;9.20;99.90
39017;DHT22;24784;45.582;5.276;2022-11-20T12:07:38;9.30;99.90
39017;DHT22;24784;45.582;5.276;2022-11-20T12:10:23;9.50;99.90
39017;DHT22;24784;45.582;5.276;2022-11-20T12:16:23;9.60;99.90
39017;DHT22;24784;45.582;5.276;2022-11-20T12:19:19;9.70;99.90
39017;DHT22;24784;45.582;5.276;2022-11-20T12:31:49;10.40;99.90
39017;DHT22;24784;45.582;5.276;2022-11-20T13:08:05;10.10;99.90
39017;DHT22;24784;45.582;5.276;2022-11-20T13:11:18;10.00;99.90
39017;DHT22;24784;45.582;5.276;2022-11-20T13:14:20;9.90;99.90
39017;DHT22;24784;45.582;5.276;2022-11-20T13:19:37;9.90;99.90
39017;DHT22;24784;45.582;5.276;2022-11-20T13:22:04;9.90;99.90
39017;DHT22;24784;45.582;5.276;2022-11-20T13:24:31;9.80;99.90
39017;DHT22;24784;45.582;5.276;2022-11-20T13:29:47;9.70;99.90
39017;DHT22;24784;45.582;5.276;2022-11-20T13:32:32;9.60;99.90
39017;DHT22;24784;45.582;5.276;2022-11-20T13:35:08;9.60;99.90
39017;DHT22;24784;45.582;5.276;2022-11-20T13:37:36;9.50;99.90
39017;DHT22;24784;45.582;5.276;2022-11-20T13:42:46;9.40;99.90
39017;DHT22;24784;45.582;5.276;2022-11-20T13:45:28;9.50;99.90
39017;DHT22;24784;45.582;5.276;2022-11-20T13:48:03;9.40;99.90
39017;DHT22;24784;45.582;5.276;2022-11-20T13:53:08;9.40;99.90
39017;DHT22;24784;45.582;5.276;2022-11-20T13:55:43;9.40;99.90
39017;DHT22;24784;45.582;5.276;2022-11-20T13:58:22;9.50;99.90
39017;DHT22;24784;45.582;5.276;2022-11-20T14:03:40;9.50;99.90
39017;DHT22;24784;45.582;5.276;2022-11-20T14:06:45;9.50;99.90
39017;DHT22;24784;45.582;5.276;2022-11-20T14:09:11;9.30;99.90
39017;DHT22;24784;45.582;5.276;2022-11-20T14:15:05;9.20;99.90
39017;DHT22;24784;45.582;5.276;2022-11-20T14:17:35;9.20;99.90
39017;DHT22;24784;45.582;5.276;2022-11-20T14:20:11;9.30;99.90
39017;DHT22;24784;45.582;5.276;2022-11-20T14:22:38;9.30;99.90
39017;DHT22;24784;45.582;5.276;2022-11-20T14:25:20;9.20;99.90
39017;DHT22;24784;45.582;5.276;2022-11-20T14:27:57;9.10;99.90
39017;DHT22;24784;45.582;5.276;2022-11-20T14:30:28;9.10;99.90
39017;DHT22;24784;45.582;5.276;2022-11-20T14:33:01;9.10;99.90
39017;DHT22;24784;45.582;5.276;2022-11-20T14:35:35;9.00;99.90
39017;DHT22;24784;45.582;5.276;2022-11-20T14:38:02;9.00;99.90
39017;DHT22;24784;45.582;5.276;2022-11-20T14:40:33;9.00;99.90
39017;DHT22;24784;45.582;5.276;2022-11-20T14:46:08;9.00;99.90
39017;DHT22;24784;45.582;5.276;2022-11-20T14:51:05;8.80;99.90
39017;DHT22;24784;45.582;5.276;2022-11-20T14:53:31;8.70;99.90
39017;DHT22;24784;45.582;5.276;2022-11-20T14:56:00;8.70;99.90
39017;DHT22;24784;45.582;5.276;2022-11-20T14:58:29;8.70;99.90
39017;DHT22;24784;45.582;5.276;2022-11-20T15:01:00;8.40;99.90
39017;DHT22;24784;45.582;5.276;2022-11-20T15:03:34;8.20;99.90
39017;DHT22;24784;45.582;5.276;2022-11-20T15:06:00;8.40;99.90
39017;DHT22;24784;45.582;5.276;2022-11-20T15:08:26;8.40;99.90
39017;DHT22;24784;45.582;5.276;2022-11-20T15:10:53;8.40;99.90
39017;DHT22;24784;45.582;5.276;2022-11-20T15:13:37;8.20;99.90
39017;DHT22;24784;45.582;5.276;2022-11-20T15:16:12;8.10;99.90
39017;DHT22;24784;45.582;5.276;2022-11-20T15:18:41;8.20;99.90
39017;DHT22;24784;45.582;5.276;2022-11-20T15:21:15;8.10;99.90
39017;DHT22;24784;45.582;5.276;2022-11-20T15:23:42;8.10;99.90
39017;DHT22;24784;45.582;5.276;2022-11-20T15:26:09;8.10;99.90
39017;DHT22;24784;45.582;5.276;2022-11-20T15:28:48;8.10;99.90
39017;DHT22;24784;45.582;5.276;2022-11-20T15:31:21;8.10;99.90
39017;DHT22;24784;45.582;5.276;2022-11-20T15:33:53;8.20;99.90
39017;DHT22;24784;45.582;5.276;2022-11-20T15:36:24;8.20;99.90
39017;DHT22;24784;45.582;5.276;2022-11-20T15:38:50;8.10;99.90
39017;DHT22;24784;45.582;5.276;2022-11-20T15:41:16;8.00;99.90
39017;DHT22;24784;45.582;5.276;2022-11-20T15:43:42;8.00;99.90
39017;DHT22;24784;45.582;5.276;2022-11-20T15:46:17;8.10;99.90
39017;DHT22;24784;45.582;5.276;2022-11-20T15:48:51;8.00;99.90
39017;DHT22;24784;45.582;5.276;2022-11-20T15:51:27;8.10;99.90
39017;DHT22;24784;45.582;5.276;2022-11-20T15:53:55;8.20;99.90
39017;DHT22;24784;45.582;5.276;2022-11-20T15:56:21;8.10;99.90
39017;DHT22;24784;45.582;5.276;2022-11-20T15:58:47;8.00;99.90
39017;DHT22;24784;45.582;5.276;2022-11-20T16:01:15;8.00;99.90
39017;DHT22;24784;45.582;5.276;2022-11-20T16:03:41;8.00;99.90
39017;DHT22;24784;45.582;5.276;2022-11-20T16:06:07;8.10;99.90
39017;DHT22;24784;45.582;5.276;2022-11-20T16:08:34;8.00;99.90
39017;DHT22;24784;45.582;5.276;2022-11-20T16:10:59;8.00;99.90
39017;DHT22;24784;45.582;5.276;2022-11-20T16:13:28;8.00;99.90
39017;DHT22;24784;45.582;5.276;2022-11-20T16:16:38;8.00;99.90
39017;DHT22;24784;45.582;5.276;2022-11-20T16:19:19;8.10;99.90
39017;DHT22;24784;45.582;5.276;2022-11-20T16:21:53;8.00;99.90
39017;DHT22;24784;45.582;5.276;2022-11-20T16:24:30;8.00;99.90
39017;DHT22;24784;45.582;5.276;2022-11-20T16:27:07;8.00;99.90
39017;DHT22;24784;45.582;5.276;2022-11-20T16:29:51;8.10;99.90
39017;DHT22;24784;45.582;5.276;2022-11-20T16:32:26;8.10;99.90
39017;DHT22;24784;45.582;5.276;2022-11-20T16:35:16;8.20;99.90
39017;DHT22;24784;45.582;5.276;2022-11-20T16:37:56;8.10;99.90
39017;DHT22;24784;45.582;5.276;2022-11-20T16:40:25;8.10;99.90
39017;DHT22;24784;45.582;5.276;2022-11-20T18:02:57;7.60;99.90
39017;DHT22;24784;45.582;5.276;2022-11-20T18:05:26;7.60;99.90
39017;DHT22;24784;45.582;5.276;2022-11-20T18:07:53;7.60;99.90
39017;DHT22;24784;45.582;5.276;2022-11-20T18:10:19;7.60;99.90
39017;DHT22;24784;45.582;5.276;2022-11-20T18:12:45;7.50;99.90
39017;DHT22;24784;45.582;5.276;2022-11-20T18:15:36;7.50;99.90
39017;DHT22;24784;45.582;5.276;2022-11-20T18:18:05;7.50;99.90
39017;DHT22;24784;45.582;5.276;2022-11-20T18:20:45;7.50;99.90
39017;DHT22;24784;45.582;5.276;2022-11-20T18:26:17;7.50;99.90
39017;DHT22;24784;45.582;5.276;2022-11-20T18:31:38;7.50;99.90
39017;DHT22;24784;45.582;5.276;2022-11-20T18:37:02;7.40;99.90
39017;DHT22;24784;45.582;5.276;2022-11-20T18:45:23;7.50;99.90
39017;DHT22;24784;45.582;5.276;2022-11-20T18:48:10;7.40;99.90
39017;DHT22;24784;45.582;5.276;2022-11-20T18:51:35;7.40;99.90
39017;DHT22;24784;45.582;5.276;2022-11-20T18:54:05;7.30;99.90
39017;DHT22;24784;45.582;5.276;2022-11-20T18:56:45;7.30;99.90
39017;DHT22;24784;45.582;5.276;2022-11-20T18:59:28;7.30;99.90
39017;DHT22;24784;45.582;5.276;2022-11-20T19:13:32;7.40;99.90
39017;DHT22;24784;45.582;5.276;2022-11-20T19:16:12;7.40;99.90
39017;DHT22;24784;45.582;5.276;2022-11-20T19:18:41;7.30;99.90
39017;DHT22;24784;45.582;5.276;2022-11-20T19:21:19;7.20;99.90
39017;DHT22;24784;45.582;5.276;2022-11-20T19:23:55;7.10;99.90
39017;DHT22;24784;45.582;5.276;2022-11-20T19:37:11;7.20;99.90
39017;DHT22;24784;45.582;5.276;2022-11-20T19:53:44;7.10;99.90
39017;DHT22;24784;45.582;5.276;2022-11-20T19:56:10;7.10;99.90
39017;DHT22;24784;45.582;5.276;2022-11-20T19:58:37;7.10;99.90
39017;DHT22;24784;45.582;5.276;2022-11-20T20:01:11;7.10;99.90
39017;DHT22;24784;45.582;5.276;2022-11-20T20:04:13;7.10;99.90
